Penfield, Illinois
Current Conditions -  °F | °C
As of 7:30 PM on Tuesday 25 Nov 2014 (Local Time) from KTIP Reporting Station
Overcast Overcast  
Wind Chill: 29°   Ceiling: 1600
Heat Index: 29°   Visibility: 10mi
Dew Point: 22°   Wind: 0mph
Humidity: 77%   Direction: NA
Pressure: 30.2"   Gusts: NA
Location:  40.3°N, 87.95°W
Report Text: KTIP 260130Z AUTO 00000KT 10SM OVC016 M02/M05 A3020 RMK AO2 T10171053
Loading
Personal Weather Stations






























Interactive Weather Map New forecast layout! Learn more

10-Day Weather Forecast

Advertisements
Track Severe Weather on mobile